Time;durP1;ratioP1;P1;durP2;ratioP2;P2;SDS_P1;SDS_P2;PMS_P1;PMS_P2;Temp;Humidity;BMP_temperature;BMP_pressure;BME280_temperature;BME280_humidity;BME280_pressure;Samples;Min_cycle;Max_cycle;Signal;HPM_P1;HPM_P2
2021/12/06 00:00:29;;;;;;;;;;;20.40;41.00;;;;;;4975282;28;19925;-72
2021/12/06 00:02:56;;;;;;;;;;;20.40;40.90;;;;;;4994338;28;19957;-73
2021/12/06 00:05:22;;;;;;;;;;;20.30;40.90;;;;;;4974873;28;20421;-72
2021/12/06 00:07:47;;;;;;;;;;;20.30;40.90;;;;;;4981615;28;19926;-72
2021/12/06 00:10:13;;;;;;;;;;;20.30;40.90;;;;;;4975987;28;20389;-73
2021/12/06 00:12:39;;;;;;;;;;;20.30;41.00;;;;;;4991557;28;19978;-72
2021/12/06 00:15:05;;;;;;;;;;;20.30;41.00;;;;;;4976725;28;20364;-72
2021/12/06 00:17:30;;;;;;;;;;;20.30;41.00;;;;;;4992332;28;19922;-73
2021/12/06 00:19:56;;;;;;;;;;;20.20;41.00;;;;;;4992430;28;19918;-72
2021/12/06 00:22:23;;;;;;;;;;;20.20;41.00;;;;;;4992346;28;19920;-73
2021/12/06 00:24:55;;;;;;;;;;;20.20;41.10;;;;;;4992294;28;19914;-72
2021/12/06 00:27:20;;;;;;;;;;;20.20;41.10;;;;;;4993254;28;20017;-72
2021/12/06 00:29:46;;;;;;;;;;;20.20;41.60;;;;;;4992501;28;19969;-73
2021/12/06 00:32:12;;;;;;;;;;;20.20;40.90;;;;;;4991635;28;19952;-72
2021/12/06 00:34:38;;;;;;;;;;;20.20;41.00;;;;;;4988411;28;20020;-72
2021/12/06 00:37:16;;;;;;;;;;;20.20;41.00;;;;;;4992516;28;19921;-73
2021/12/06 00:39:41;;;;;;;;;;;20.20;41.00;;;;;;4998704;28;19971;-73
2021/12/06 00:42:07;;;;;;;;;;;20.20;40.90;;;;;;4991870;28;19918;-72
2021/12/06 00:44:32;;;;;;;;;;;20.20;40.80;;;;;;4992997;28;20290;-72
2021/12/06 00:46:58;;;;;;;;;;;20.20;40.80;;;;;;4993455;28;19910;-72
2021/12/06 00:49:23;;;;;;;;;;;20.20;40.90;;;;;;4993488;28;19914;-72
2021/12/06 00:51:48;;;;;;;;;;;20.20;40.80;;;;;;4971997;28;20415;-73
2021/12/06 00:54:15;;;;;;;;;;;20.20;40.80;;;;;;4986268;28;19914;-73
2021/12/06 00:56:41;;;;;;;;;;;20.20;40.80;;;;;;4992270;28;19918;-72
2021/12/06 00:59:06;;;;;;;;;;;20.10;40.80;;;;;;4991292;28;19926;-72
2021/12/06 01:01:32;;;;;;;;;;;20.10;40.90;;;;;;4992069;28;19914;-73
2021/12/06 01:03:57;;;;;;;;;;;20.10;40.90;;;;;;4990746;28;19980;-72
2021/12/06 01:06:22;;;;;;;;;;;20.10;41.00;;;;;;4975585;28;19914;-72
2021/12/06 01:08:48;;;;;;;;;;;20.10;41.10;;;;;;4992589;28;19949;-72
2021/12/06 01:11:14;;;;;;;;;;;20.10;40.90;;;;;;4984798;28;19921;-72
2021/12/06 01:13:39;;;;;;;;;;;20.10;40.90;;;;;;4978126;28;19910;-72
2021/12/06 01:16:06;;;;;;;;;;;20.10;41.00;;;;;;4993228;28;20540;-72
2021/12/06 01:18:32;;;;;;;;;;;20.10;41.00;;;;;;4992239;28;19910;-72
2021/12/06 01:21:06;;;;;;;;;;;20.10;41.00;;;;;;4991960;28;19962;-72
2021/12/06 01:23:44;;;;;;;;;;;20.00;41.00;;;;;;4998852;28;19910;-72
2021/12/06 01:26:29;;;;;;;;;;;20.00;40.80;;;;;;4993192;28;19921;-72
2021/12/06 01:29:07;;;;;;;;;;;20.10;41.00;;;;;;4995909;28;20024;-72
2021/12/06 01:31:50;;;;;;;;;;;20.10;40.90;;;;;;4970211;28;20418;-72
2021/12/06 01:39:46;;;;;;;;;;;20.00;40.90;;;;;;4992344;28;19924;-73
2021/12/06 01:42:11;;;;;;;;;;;20.00;41.00;;;;;;4992786;28;19914;-72
2021/12/06 01:44:41;;;;;;;;;;;20.00;41.00;;;;;;4969714;28;19954;-72
2021/12/06 01:47:10;;;;;;;;;;;20.00;41.00;;;;;;4988559;28;19918;-72
2021/12/06 01:49:40;;;;;;;;;;;20.00;40.90;;;;;;4991378;28;19918;-73
2021/12/06 01:52:07;;;;;;;;;;;20.00;41.00;;;;;;4991436;28;20005;-73
2021/12/06 01:54:33;;;;;;;;;;;20.00;41.00;;;;;;4993483;28;20286;-72
2021/12/06 01:56:58;;;;;;;;;;;20.00;40.90;;;;;;4994686;28;19914;-72
2021/12/06 01:59:24;;;;;;;;;;;20.00;40.90;;;;;;4995465;28;20321;-72
2021/12/06 02:01:49;;;;;;;;;;;20.00;40.90;;;;;;4995604;28;19921;-72
2021/12/06 02:04:17;;;;;;;;;;;20.00;41.10;;;;;;4989946;28;19918;-73
2021/12/06 02:06:42;;;;;;;;;;;20.00;41.00;;;;;;4977298;28;19910;-73
2021/12/06 02:09:08;;;;;;;;;;;20.00;41.00;;;;;;4975684;28;20457;-73
2021/12/06 02:11:36;;;;;;;;;;;19.90;41.00;;;;;;4960097;28;19917;-72
2021/12/06 02:14:19;;;;;;;;;;;19.90;40.90;;;;;;4963635;28;19914;-72
2021/12/06 02:16:59;;;;;;;;;;;19.90;41.00;;;;;;5011228;28;20006;-73
2021/12/06 02:19:31;;;;;;;;;;;19.90;41.00;;;;;;5001896;28;19914;-72
2021/12/06 02:21:56;;;;;;;;;;;19.90;41.00;;;;;;4987822;28;19981;-72
2021/12/06 02:24:22;;;;;;;;;;;19.90;41.00;;;;;;4975087;28;19915;-72
2021/12/06 02:26:47;;;;;;;;;;;19.90;40.80;;;;;;4976840;28;19960;-72
2021/12/06 02:29:13;;;;;;;;;;;20.00;40.80;;;;;;4975051;28;19969;-72
2021/12/06 02:31:38;;;;;;;;;;;20.00;40.60;;;;;;4959828;28;20366;-73
2021/12/06 02:34:04;;;;;;;;;;;20.20;40.60;;;;;;4981716;28;19921;-72
2021/12/06 02:36:30;;;;;;;;;;;20.30;40.30;;;;;;4975638;28;20314;-73
2021/12/06 02:38:55;;;;;;;;;;;20.50;40.00;;;;;;4992841;28;20396;-73
2021/12/06 02:41:21;;;;;;;;;;;20.70;39.80;;;;;;4980407;28;20004;-72
2021/12/06 02:43:47;;;;;;;;;;;20.80;39.50;;;;;;4976546;28;19918;-72
2021/12/06 02:46:12;;;;;;;;;;;20.90;39.30;;;;;;4978071;28;20035;-72
2021/12/06 02:48:38;;;;;;;;;;;21.10;39.20;;;;;;4995680;28;20015;-73
2021/12/06 02:51:04;;;;;;;;;;;21.10;39.00;;;;;;4995883;28;20259;-73
2021/12/06 02:53:30;;;;;;;;;;;21.20;39.00;;;;;;4993476;28;20302;-72
2021/12/06 02:55:58;;;;;;;;;;;21.30;39.00;;;;;;4994849;28;19910;-72
2021/12/06 03:01:04;;;;;;;;;;;21.30;38.90;;;;;;5000660;28;20282;-73
2021/12/06 03:03:30;;;;;;;;;;;21.30;38.90;;;;;;4993656;28;19913;-72
2021/12/06 03:05:55;;;;;;;;;;;21.30;38.80;;;;;;4975823;28;19961;-72
2021/12/06 03:08:38;;;;;;;;;;;21.30;38.80;;;;;;4994045;28;19993;-73
2021/12/06 03:11:05;;;;;;;;;;;21.30;38.90;;;;;;4993445;28;20334;-73
2021/12/06 03:13:30;;;;;;;;;;;21.20;38.90;;;;;;4984729;28;20426;-73
2021/12/06 03:15:55;;;;;;;;;;;21.20;39.00;;;;;;5006021;28;19998;-73
2021/12/06 03:18:21;;;;;;;;;;;21.10;39.00;;;;;;4990679;28;19910;-72
2021/12/06 03:20:46;;;;;;;;;;;21.10;39.10;;;;;;4988804;28;19922;-73
2021/12/06 03:23:12;;;;;;;;;;;21.00;39.10;;;;;;4994030;28;19910;-73
2021/12/06 03:25:37;;;;;;;;;;;21.00;39.20;;;;;;4994622;28;19917;-73
2021/12/06 03:28:03;;;;;;;;;;;21.00;39.20;;;;;;4993490;28;20358;-73
2021/12/06 03:30:28;;;;;;;;;;;21.00;39.20;;;;;;4993264;28;20013;-72
2021/12/06 03:32:54;;;;;;;;;;;21.00;39.20;;;;;;4993597;28;20266;-73
2021/12/06 03:35:19;;;;;;;;;;;21.00;39.20;;;;;;4993376;28;20262;-72
2021/12/06 03:37:44;;;;;;;;;;;21.00;39.10;;;;;;4992765;28;19940;-72
2021/12/06 03:40:10;;;;;;;;;;;21.00;39.10;;;;;;4986763;28;20028;-72
2021/12/06 03:42:36;;;;;;;;;;;21.10;39.10;;;;;;4994340;28;19937;-72
2021/12/06 03:45:01;;;;;;;;;;;21.10;39.00;;;;;;4983759;28;20004;-72
2021/12/06 03:47:29;;;;;;;;;;;21.10;38.90;;;;;;4977385;28;20297;-72
2021/12/06 03:49:54;;;;;;;;;;;21.10;39.00;;;;;;4993441;28;19910;-72
2021/12/06 03:52:20;;;;;;;;;;;21.10;38.90;;;;;;4993204;28;20389;-73
2021/12/06 03:54:46;;;;;;;;;;;21.20;38.90;;;;;;5007851;28;19917;-73
2021/12/06 03:57:12;;;;;;;;;;;21.20;39.00;;;;;;4993867;28;19924;-73
2021/12/06 03:59:37;;;;;;;;;;;21.10;38.90;;;;;;4993340;28;20021;-72
2021/12/06 04:02:03;;;;;;;;;;;21.10;39.00;;;;;;4993331;28;19914;-72
2021/12/06 04:04:28;;;;;;;;;;;21.10;39.00;;;;;;4994137;28;19922;-73
2021/12/06 04:06:54;;;;;;;;;;;21.10;39.00;;;;;;4976524;28;19967;-73
2021/12/06 04:09:19;;;;;;;;;;;21.10;39.10;;;;;;5008827;28;19921;-73
2021/12/06 04:11:45;;;;;;;;;;;21.10;39.10;;;;;;4988862;28;19924;-72
2021/12/06 04:14:10;;;;;;;;;;;21.00;39.00;;;;;;5008369;28;19945;-72
2021/12/06 04:16:36;;;;;;;;;;;21.00;39.10;;;;;;5008102;28;20008;-72
2021/12/06 04:19:02;;;;;;;;;;;21.00;39.10;;;;;;4992559;28;19910;-73
2021/12/06 04:21:28;;;;;;;;;;;21.00;39.20;;;;;;4992730;28;19918;-73
2021/12/06 04:23:53;;;;;;;;;;;21.00;39.20;;;;;;4992084;28;19914;-73
2021/12/06 04:26:19;;;;;;;;;;;21.00;39.30;;;;;;5008541;28;20012;-73
2021/12/06 04:28:48;;;;;;;;;;;21.00;39.20;;;;;;4992059;28;19917;-72
2021/12/06 04:31:14;;;;;;;;;;;21.00;39.20;;;;;;4988783;28;20290;-72
2021/12/06 04:33:40;;;;;;;;;;;21.00;39.10;;;;;;4990433;28;20386;-72
2021/12/06 04:36:05;;;;;;;;;;;20.90;39.10;;;;;;4982525;28;19937;-72
2021/12/06 04:38:30;;;;;;;;;;;21.00;39.20;;;;;;4992497;28;19996;-72
2021/12/06 04:40:56;;;;;;;;;;;20.90;39.20;;;;;;4991563;28;20476;-72
2021/12/06 04:43:21;;;;;;;;;;;20.80;39.20;;;;;;4992997;28;20318;-72
2021/12/06 04:45:47;;;;;;;;;;;20.80;39.30;;;;;;4991546;28;19918;-73
2021/12/06 04:48:12;;;;;;;;;;;20.80;39.40;;;;;;5008000;28;19917;-73
2021/12/06 04:50:39;;;;;;;;;;;20.80;39.40;;;;;;4991982;28;20150;-72
2021/12/06 04:53:06;;;;;;;;;;;20.80;39.40;;;;;;4976093;28;20366;-72
2021/12/06 04:55:32;;;;;;;;;;;20.80;39.30;;;;;;4985343;28;19960;-73
2021/12/06 04:57:57;;;;;;;;;;;20.90;39.30;;;;;;4973595;28;19949;-73
2021/12/06 05:00:22;;;;;;;;;;;20.90;39.20;;;;;;4989144;28;19929;-72
2021/12/06 05:02:48;;;;;;;;;;;20.90;39.10;;;;;;5008151;28;19914;-72
2021/12/06 05:05:15;;;;;;;;;;;21.00;39.00;;;;;;4990220;28;19925;-72
2021/12/06 05:07:43;;;;;;;;;;;21.10;39.00;;;;;;4993110;28;19917;-72
2021/12/06 05:10:09;;;;;;;;;;;21.20;38.90;;;;;;4979686;28;20279;-73
2021/12/06 05:12:34;;;;;;;;;;;21.20;38.80;;;;;;4977637;28;19921;-73
2021/12/06 05:15:00;;;;;;;;;;;21.20;38.70;;;;;;4983587;28;19914;-73
2021/12/06 05:17:26;;;;;;;;;;;21.20;38.60;;;;;;4993121;28;19921;-73
2021/12/06 05:19:51;;;;;;;;;;;21.20;38.60;;;;;;4991434;28;19913;-73
2021/12/06 05:22:17;;;;;;;;;;;21.20;38.60;;;;;;4990917;28;20016;-72
2021/12/06 05:24:42;;;;;;;;;;;21.20;38.60;;;;;;4990861;28;19917;-71
2021/12/06 05:27:08;;;;;;;;;;;21.10;38.50;;;;;;4988442;28;19926;-73
2021/12/06 05:29:33;;;;;;;;;;;21.10;38.70;;;;;;4992941;28;19968;-72
2021/12/06 05:32:00;;;;;;;;;;;21.10;38.70;;;;;;4993130;28;19914;-72
2021/12/06 05:34:37;;;;;;;;;;;21.10;38.70;;;;;;4993060;28;20281;-71
2021/12/06 05:37:03;;;;;;;;;;;21.00;38.80;;;;;;5013886;28;19921;-72
2021/12/06 05:39:32;;;;;;;;;;;21.00;38.80;;;;;;4994603;28;19921;-72
2021/12/06 05:42:01;;;;;;;;;;;21.00;38.90;;;;;;4979196;28;19941;-72
2021/12/06 05:44:27;;;;;;;;;;;21.00;38.90;;;;;;4994436;28;19945;-72
2021/12/06 05:46:52;;;;;;;;;;;21.00;39.00;;;;;;4991516;28;19910;-72
2021/12/06 05:49:18;;;;;;;;;;;21.00;38.90;;;;;;4995276;28;19918;-72
2021/12/06 05:51:43;;;;;;;;;;;20.90;38.80;;;;;;4995308;28;19922;-72
2021/12/06 05:54:09;;;;;;;;;;;21.00;38.90;;;;;;4995007;28;20388;-73
2021/12/06 05:56:34;;;;;;;;;;;21.00;38.90;;;;;;4995880;28;19918;-72
2021/12/06 05:59:00;;;;;;;;;;;21.00;38.80;;;;;;4995694;28;19920;-73
2021/12/06 06:01:29;;;;;;;;;;;21.00;38.70;;;;;;4995391;28;19942;-72
2021/12/06 06:03:55;;;;;;;;;;;21.10;38.70;;;;;;4995355;28;19922;-72
2021/12/06 06:06:20;;;;;;;;;;;21.10;38.70;;;;;;4996300;28;19938;-73
2021/12/06 06:08:46;;;;;;;;;;;21.10;38.60;;;;;;4994632;28;19922;-72
2021/12/06 06:11:12;;;;;;;;;;;21.10;39.20;;;;;;4994952;28;20378;-72
2021/12/06 06:13:37;;;;;;;;;;;21.20;38.60;;;;;;4993855;28;20367;-72
2021/12/06 06:16:03;;;;;;;;;;;21.10;38.50;;;;;;4994830;28;19964;-72
2021/12/06 06:18:28;;;;;;;;;;;21.10;38.50;;;;;;4996417;28;20295;-72
2021/12/06 06:20:54;;;;;;;;;;;21.20;38.60;;;;;;4995991;28;20413;-71
2021/12/06 06:23:19;;;;;;;;;;;21.10;38.50;;;;;;4995472;28;20378;-72
2021/12/06 06:25:44;;;;;;;;;;;21.10;38.60;;;;;;4994472;28;20000;-71
2021/12/06 06:28:10;;;;;;;;;;;21.10;38.70;;;;;;4994268;28;19917;-71
2021/12/06 06:30:35;;;;;;;;;;;21.10;38.70;;;;;;4994330;28;19932;-73
2021/12/06 06:33:01;;;;;;;;;;;21.10;38.70;;;;;;4976983;28;19922;-72
2021/12/06 06:35:26;;;;;;;;;;;21.10;38.70;;;;;;4977140;28;19977;-72
2021/12/06 06:37:52;;;;;;;;;;;21.00;38.70;;;;;;4989132;28;19925;-72
2021/12/06 06:40:17;;;;;;;;;;;21.00;38.80;;;;;;4993865;28;19921;-72
2021/12/06 06:42:43;;;;;;;;;;;21.00;38.70;;;;;;4995541;28;20286;-72
2021/12/06 06:45:09;;;;;;;;;;;21.00;38.80;;;;;;4994304;28;19918;-72
2021/12/06 06:47:34;;;;;;;;;;;21.00;38.80;;;;;;4993110;28;19949;-71
2021/12/06 06:50:00;;;;;;;;;;;21.00;38.80;;;;;;5010348;28;20004;-72
2021/12/06 06:52:25;;;;;;;;;;;21.00;38.80;;;;;;4994093;28;19910;-73
2021/12/06 06:54:51;;;;;;;;;;;21.00;38.80;;;;;;4979353;28;20389;-72
2021/12/06 06:57:16;;;;;;;;;;;21.00;38.80;;;;;;4990449;28;19925;-72
2021/12/06 06:59:42;;;;;;;;;;;21.00;38.80;;;;;;4992182;28;19914;-72
2021/12/06 07:02:08;;;;;;;;;;;21.00;38.70;;;;;;4995094;28;19917;-72
2021/12/06 07:04:34;;;;;;;;;;;21.00;38.70;;;;;;4983754;28;19957;-72
2021/12/06 07:06:59;;;;;;;;;;;21.00;38.70;;;;;;4989272;28;19957;-72
2021/12/06 07:09:25;;;;;;;;;;;21.10;38.80;;;;;;4994617;28;19928;-72
2021/12/06 07:11:51;;;;;;;;;;;21.00;38.70;;;;;;4993264;28;19968;-72
2021/12/06 07:14:17;;;;;;;;;;;21.10;38.80;;;;;;4985545;28;19909;-72
2021/12/06 07:16:42;;;;;;;;;;;21.10;38.80;;;;;;4994054;28;19924;-72
2021/12/06 07:19:08;;;;;;;;;;;21.10;38.80;;;;;;4976627;28;19917;-72
2021/12/06 07:21:34;;;;;;;;;;;21.10;38.80;;;;;;4976722;28;19914;-72
2021/12/06 07:23:59;;;;;;;;;;;21.10;38.80;;;;;;4983725;28;20373;-71
2021/12/06 07:26:25;;;;;;;;;;;21.10;39.50;;;;;;4994646;28;20390;-71
2021/12/06 07:28:51;;;;;;;;;;;21.10;38.80;;;;;;4962886;28;19926;-72
2021/12/06 07:31:16;;;;;;;;;;;21.00;38.80;;;;;;4971954;28;19952;-72
2021/12/06 07:33:42;;;;;;;;;;;21.00;38.80;;;;;;4992762;28;19921;-72
2021/12/06 07:36:08;;;;;;;;;;;21.10;38.80;;;;;;4977016;28;19917;-72
2021/12/06 07:38:35;;;;;;;;;;;21.10;38.90;;;;;;4992924;28;20402;-72
2021/12/06 07:41:00;;;;;;;;;;;21.00;38.80;;;;;;4966541;28;19914;-72
2021/12/06 07:43:26;;;;;;;;;;;21.00;38.80;;;;;;4973347;28;19917;-72
2021/12/06 07:45:51;;;;;;;;;;;21.10;38.80;;;;;;5006129;28;20005;-73
2021/12/06 07:48:17;;;;;;;;;;;21.00;38.80;;;;;;4993955;28;19914;-73
2021/12/06 07:50:42;;;;;;;;;;;21.10;38.90;;;;;;4995037;28;20301;-73
2021/12/06 07:53:08;;;;;;;;;;;21.00;38.90;;;;;;4992442;28;19972;-73
2021/12/06 07:55:34;;;;;;;;;;;21.00;38.90;;;;;;4976456;28;19914;-74
2021/12/06 07:58:00;;;;;;;;;;;21.00;38.90;;;;;;4993041;28;19918;-73
2021/12/06 08:00:26;;;;;;;;;;;21.00;38.90;;;;;;5009719;28;20329;-74
2021/12/06 08:02:52;;;;;;;;;;;21.00;38.90;;;;;;4992922;28;19910;-73
2021/12/06 08:05:30;;;;;;;;;;;21.00;38.90;;;;;;4990908;28;19918;-73
2021/12/06 08:08:07;;;;;;;;;;;21.00;38.90;;;;;;4992445;28;19972;-72
2021/12/06 08:10:34;;;;;;;;;;;21.00;38.80;;;;;;4988716;28;19940;-73
2021/12/06 08:13:07;;;;;;;;;;;21.00;38.80;;;;;;5089184;27;19921;-60
2021/12/06 08:15:33;;;;;;;;;;;21.00;38.80;;;;;;5089724;28;19925;-61
2021/12/06 08:17:58;;;;;;;;;;;21.00;38.80;;;;;;5116733;28;19947;-60
2021/12/06 08:20:24;;;;;;;;;;;21.00;38.90;;;;;;5102170;28;19908;-60
2021/12/06 08:22:49;;;;;;;;;;;21.00;38.90;;;;;;5101968;28;20415;-60
2021/12/06 08:25:15;;;;;;;;;;;21.00;38.90;;;;;;5102254;28;20255;-60
2021/12/06 08:27:40;;;;;;;;;;;21.00;38.90;;;;;;5084448;28;19913;-60
2021/12/06 08:30:06;;;;;;;;;;;21.00;38.90;;;;;;5073218;28;19959;-60
2021/12/06 08:32:31;;;;;;;;;;;21.00;39.00;;;;;;5089586;28;19912;-60
2021/12/06 08:34:57;;;;;;;;;;;21.00;38.90;;;;;;5089334;28;20319;-60
2021/12/06 08:37:22;;;;;;;;;;;21.00;39.00;;;;;;5087952;28;20349;-61
2021/12/06 08:39:48;;;;;;;;;;;20.90;38.90;;;;;;5089219;28;19916;-60
2021/12/06 08:42:13;;;;;;;;;;;20.90;38.90;;;;;;5087430;28;19920;-61
2021/12/06 08:44:38;;;;;;;;;;;20.90;38.90;;;;;;5088863;28;19912;-60
2021/12/06 08:47:04;;;;;;;;;;;20.90;38.90;;;;;;5088935;28;20387;-60
2021/12/06 08:49:29;;;;;;;;;;;20.90;39.00;;;;;;5070590;28;20360;-60
2021/12/06 08:51:57;;;;;;;;;;;20.90;39.00;;;;;;5082473;28;19927;-61
2021/12/06 08:54:27;;;;;;;;;;;20.90;39.00;;;;;;5130296;27;19912;-60
2021/12/06 08:56:52;;;;;;;;;;;20.90;39.40;;;;;;5100575;28;19913;-60
2021/12/06 08:59:18;;;;;;;;;;;21.00;39.50;;;;;;5094322;28;20139;-61
2021/12/06 09:01:43;;;;;;;;;;;21.00;39.40;;;;;;5096879;28;20007;-61
2021/12/06 09:04:11;;;;;;;;;;;21.10;39.00;;;;;;5103017;28;19952;-61
2021/12/06 09:06:40;;;;;;;;;;;21.20;38.90;;;;;;5088915;28;19958;-61
2021/12/06 09:09:08;;;;;;;;;;;21.30;38.90;;;;;;5091991;28;19916;-61
2021/12/06 09:11:34;;;;;;;;;;;21.30;38.90;;;;;;5109591;28;19931;-61
2021/12/06 09:13:59;;;;;;;;;;;21.40;38.80;;;;;;5108722;28;19994;-61
2021/12/06 09:16:25;;;;;;;;;;;21.40;38.80;;;;;;5125356;28;19950;-61
2021/12/06 09:18:50;;;;;;;;;;;21.50;38.80;;;;;;5115851;28;19922;-61
2021/12/06 09:21:17;;;;;;;;;;;21.50;38.80;;;;;;5127567;28;19908;-61
2021/12/06 09:23:42;;;;;;;;;;;21.50;38.80;;;;;;5107514;28;19908;-61
2021/12/06 09:26:08;;;;;;;;;;;21.50;38.80;;;;;;5107842;28;19988;-61
2021/12/06 09:28:34;;;;;;;;;;;21.60;38.80;;;;;;5096546;28;19908;-61
2021/12/06 09:31:01;;;;;;;;;;;21.60;38.80;;;;;;5108969;28;19976;-61
2021/12/06 09:33:27;;;;;;;;;;;21.60;38.80;;;;;;5101623;28;19919;-61
2021/12/06 09:35:58;;;;;;;;;;;21.60;38.90;;;;;;5101646;28;19912;-61
2021/12/06 09:38:28;;;;;;;;;;;21.60;38.80;;;;;;5116699;28;19908;-61
2021/12/06 09:40:53;;;;;;;;;;;21.60;38.80;;;;;;5082098;28;19934;-61
2021/12/06 09:43:19;;;;;;;;;;;21.60;38.80;;;;;;5107349;28;20313;-61
2021/12/06 09:45:44;;;;;;;;;;;21.60;38.80;;;;;;5090568;28;19915;-61
2021/12/06 09:48:10;;;;;;;;;;;21.60;38.80;;;;;;5108927;28;19908;-61
2021/12/06 09:50:37;;;;;;;;;;;21.60;38.80;;;;;;5086934;28;20406;-61
2021/12/06 09:53:03;;;;;;;;;;;21.60;38.80;;;;;;5085474;28;19919;-61
2021/12/06 09:55:29;;;;;;;;;;;21.60;38.80;;;;;;5102619;28;20027;-62
2021/12/06 09:57:55;;;;;;;;;;;21.60;38.70;;;;;;5100134;28;19908;-62
2021/12/06 10:00:21;;;;;;;;;;;21.60;38.80;;;;;;5091455;28;19915;-61
2021/12/06 10:02:46;;;;;;;;;;;21.60;38.80;;;;;;5094163;28;19908;-61
2021/12/06 10:05:12;;;;;;;;;;;21.70;38.80;;;;;;5108085;28;20360;-61
2021/12/06 10:07:38;;;;;;;;;;;21.70;38.80;;;;;;5101857;28;19919;-61
2021/12/06 10:10:04;;;;;;;;;;;21.70;38.70;;;;;;5100818;28;19935;-61
2021/12/06 10:12:30;;;;;;;;;;;21.80;38.70;;;;;;5109178;28;20023;-61
2021/12/06 10:14:56;;;;;;;;;;;21.80;38.60;;;;;;5105129;28;19961;-61
2021/12/06 10:17:22;;;;;;;;;;;21.80;38.60;;;;;;5106410;28;19915;-61
2021/12/06 10:19:47;;;;;;;;;;;21.70;38.50;;;;;;5095250;28;19912;-61
2021/12/06 10:22:14;;;;;;;;;;;21.70;38.60;;;;;;5087359;28;19920;-61
2021/12/06 10:24:39;;;;;;;;;;;21.80;38.60;;;;;;5091941;28;19916;-61
2021/12/06 10:27:14;;;;;;;;;;;21.80;38.60;;;;;;5091965;28;19919;-61
2021/12/06 10:29:43;;;;;;;;;;;21.80;38.70;;;;;;5112316;28;19915;-61
2021/12/06 10:32:13;;;;;;;;;;;21.70;38.50;;;;;;5100372;28;20023;-61
2021/12/06 10:34:41;;;;;;;;;;;21.70;38.60;;;;;;5108883;28;19957;-61
2021/12/06 10:37:07;;;;;;;;;;;21.70;38.50;;;;;;5097307;28;19939;-61
2021/12/06 10:39:35;;;;;;;;;;;21.70;38.60;;;;;;5085590;28;19924;-61
2021/12/06 10:42:01;;;;;;;;;;;21.70;38.70;;;;;;5091214;28;19927;-61
2021/12/06 10:44:26;;;;;;;;;;;21.70;38.70;;;;;;5097370;28;20360;-61
2021/12/06 10:46:52;;;;;;;;;;;21.60;38.70;;;;;;5119357;27;19919;-61
2021/12/06 10:49:18;;;;;;;;;;;21.70;38.80;;;;;;5105034;28;20510;-61
2021/12/06 10:51:44;;;;;;;;;;;21.70;38.60;;;;;;5102177;28;20288;-61
2021/12/06 10:54:20;;;;;;;;;;;21.70;38.50;;;;;;5091387;28;19937;-61
2021/12/06 10:56:47;;;;;;;;;;;21.70;38.60;;;;;;5107345;28;19908;-61
2021/12/06 10:59:15;;;;;;;;;;;21.70;38.60;;;;;;5098871;28;19912;-61
2021/12/06 11:01:41;;;;;;;;;;;21.70;38.50;;;;;;5101862;28;19908;-61
2021/12/06 11:04:07;;;;;;;;;;;21.70;38.40;;;;;;5106389;28;19930;-61
2021/12/06 11:06:51;;;;;;;;;;;21.70;38.40;;;;;;5096149;28;19962;-62
2021/12/06 11:09:21;;;;;;;;;;;21.70;38.30;;;;;;5105913;28;19915;-61
2021/12/06 11:11:49;;;;;;;;;;;21.70;39.00;;;;;;5101830;28;19997;-61
2021/12/06 11:14:19;;;;;;;;;;;21.80;38.50;;;;;;5097507;28;19915;-61
2021/12/06 11:16:45;;;;;;;;;;;21.80;38.30;;;;;;5091461;28;20296;-61
2021/12/06 11:19:11;;;;;;;;;;;21.90;38.20;;;;;;5097242;28;19990;-61
2021/12/06 11:21:44;;;;;;;;;;;21.90;38.20;;;;;;5101781;28;19908;-61
2021/12/06 11:24:10;;;;;;;;;;;22.00;38.20;;;;;;5105716;28;19912;-62
2021/12/06 11:26:37;;;;;;;;;;;22.00;37.90;;;;;;5094774;28;19912;-62
2021/12/06 11:29:13;;;;;;;;;;;22.10;37.90;;;;;;5090985;28;19912;-62
2021/12/06 11:31:40;;;;;;;;;;;22.10;37.50;;;;;;5109654;28;19920;-62
2021/12/06 11:34:06;;;;;;;;;;;22.20;37.50;;;;;;5109596;28;19912;-62
2021/12/06 11:36:31;;;;;;;;;;;22.20;37.50;;;;;;5094308;28;20288;-61
2021/12/06 11:39:02;;;;;;;;;;;22.20;37.60;;;;;;5107380;28;19909;-61
2021/12/06 11:41:29;;;;;;;;;;;22.20;38.20;;;;;;5090917;28;19912;-61
2021/12/06 11:43:55;;;;;;;;;;;22.30;37.50;;;;;;5089946;28;19916;-61
2021/12/06 11:46:28;;;;;;;;;;;22.30;37.50;;;;;;5101955;28;19953;-61
2021/12/06 11:48:53;;;;;;;;;;;22.30;37.30;;;;;;5079038;28;19912;-62
2021/12/06 11:51:19;;;;;;;;;;;22.30;37.40;;;;;;5098175;28;20343;-62
2021/12/06 11:53:47;;;;;;;;;;;22.30;37.30;;;;;;5100195;28;20276;-61
2021/12/06 11:56:20;;;;;;;;;;;22.30;37.30;;;;;;5105403;28;20315;-61
2021/12/06 11:58:51;;;;;;;;;;;22.30;37.40;;;;;;5094986;28;19909;-61
2021/12/06 12:01:16;;;;;;;;;;;22.30;37.20;;;;;;5110439;28;20014;-61
2021/12/06 12:03:43;;;;;;;;;;;22.30;37.20;;;;;;5091492;28;19907;-61
2021/12/06 12:06:22;;;;;;;;;;;22.30;37.20;;;;;;5091165;28;19962;-61
2021/12/06 12:08:47;;;;;;;;;;;22.40;37.00;;;;;;5082251;28;19919;-60
2021/12/06 12:11:13;;;;;;;;;;;22.40;37.10;;;;;;5094066;28;20069;-61
2021/12/06 12:13:38;;;;;;;;;;;22.40;37.10;;;;;;5093278;28;20015;-61
2021/12/06 12:16:05;;;;;;;;;;;22.40;37.20;;;;;;5087064;28;20324;-61
2021/12/06 12:18:33;;;;;;;;;;;22.40;37.30;;;;;;5102624;28;19915;-61
2021/12/06 12:20:59;;;;;;;;;;;22.40;37.40;;;;;;5087991;28;19943;-61
2021/12/06 12:23:25;;;;;;;;;;;22.40;37.30;;;;;;5084813;28;19913;-61
2021/12/06 12:25:59;;;;;;;;;;;22.50;37.50;;;;;;5089692;28;20011;-62
2021/12/06 12:28:30;;;;;;;;;;;22.50;37.60;;;;;;5102984;28;19948;-62
2021/12/06 12:30:56;;;;;;;;;;;22.50;37.60;;;;;;5095180;28;19987;-62
2021/12/06 12:33:22;;;;;;;;;;;22.50;37.70;;;;;;5083387;28;19966;-62
2021/12/06 12:35:48;;;;;;;;;;;22.50;37.60;;;;;;5081758;28;19912;-62
2021/12/06 12:38:20;;;;;;;;;;;22.50;37.60;;;;;;5097591;28;19920;-61
2021/12/06 12:40:56;;;;;;;;;;;22.50;37.50;;;;;;5096110;28;19953;-61
2021/12/06 12:43:38;;;;;;;;;;;22.50;38.10;;;;;;5095052;28;19919;-61
2021/12/06 12:46:14;;;;;;;;;;;22.60;37.60;;;;;;5090704;28;19919;-61
2021/12/06 12:48:43;;;;;;;;;;;22.60;37.60;;;;;;5101265;28;20387;-62
2021/12/06 12:51:10;;;;;;;;;;;22.60;37.60;;;;;;5080317;28;19924;-62
2021/12/06 12:53:43;;;;;;;;;;;22.60;37.60;;;;;;5097834;28;19908;-62
2021/12/06 12:56:16;;;;;;;;;;;22.60;37.50;;;;;;5065434;28;20378;-61
2021/12/06 12:58:42;;;;;;;;;;;22.60;37.60;;;;;;5097649;28;19913;-61
2021/12/06 13:01:09;;;;;;;;;;;22.60;37.70;;;;;;5096468;28;19915;-62
2021/12/06 13:03:50;;;;;;;;;;;22.60;37.60;;;;;;5105915;28;20003;-62
2021/12/06 13:06:31;;;;;;;;;;;22.60;37.70;;;;;;5075650;28;19955;-62
2021/12/06 13:08:57;;;;;;;;;;;22.60;37.50;;;;;;5098102;28;19920;-61
2021/12/06 13:11:24;;;;;;;;;;;22.60;37.60;;;;;;5095898;28;19955;-62
2021/12/06 13:13:51;;;;;;;;;;;22.60;37.70;;;;;;5090886;28;20283;-62
2021/12/06 13:19:16;;;;;;;;;;;22.70;37.60;;;;;;5094390;28;20334;-62
2021/12/06 13:21:55;;;;;;;;;;;22.70;37.80;;;;;;5090199;28;19943;-61
2021/12/06 13:24:21;;;;;;;;;;;22.70;37.80;;;;;;5104989;28;19999;-61
2021/12/06 13:26:50;;;;;;;;;;;22.70;37.70;;;;;;5102019;28;20007;-62
2021/12/06 13:29:17;;;;;;;;;;;22.70;37.70;;;;;;5104481;28;19959;-61
2021/12/06 13:31:42;;;;;;;;;;;22.70;37.70;;;;;;5099189;28;20384;-61
2021/12/06 13:34:17;;;;;;;;;;;22.70;37.70;;;;;;5082338;28;19982;-61
2021/12/06 13:36:44;;;;;;;;;;;22.70;37.70;;;;;;5101257;28;19912;-61
2021/12/06 13:39:28;;;;;;;;;;;22.70;37.90;;;;;;5104068;28;20404;-61
2021/12/06 13:41:54;;;;;;;;;;;22.70;37.70;;;;;;5082274;28;19907;-61
2021/12/06 13:44:22;;;;;;;;;;;22.70;37.90;;;;;;5103616;28;19964;-61
2021/12/06 13:46:48;;;;;;;;;;;22.70;37.70;;;;;;5102290;28;20887;-61
2021/12/06 13:49:15;;;;;;;;;;;22.70;37.70;;;;;;5085873;28;20078;-62
2021/12/06 13:51:41;;;;;;;;;;;22.70;37.70;;;;;;5075916;28;20000;-62
2021/12/06 13:54:06;;;;;;;;;;;22.70;37.70;;;;;;5107260;28;19947;-62
2021/12/06 13:57:01;;;;;;;;;;;22.70;37.80;;;;;;5103636;28;20365;-62
2021/12/06 13:59:39;;;;;;;;;;;22.70;37.80;;;;;;5081204;28;20252;-61
2021/12/06 14:02:07;;;;;;;;;;;22.70;37.60;;;;;;5097044;28;19908;-62
2021/12/06 14:04:33;;;;;;;;;;;22.70;37.70;;;;;;5084044;28;19911;-62
2021/12/06 14:07:01;;;;;;;;;;;22.70;37.60;;;;;;5103650;28;19916;-62
2021/12/06 14:09:28;;;;;;;;;;;22.70;37.80;;;;;;5105386;28;19927;-61
2021/12/06 14:11:54;;;;;;;;;;;22.70;37.70;;;;;;5100277;28;20388;-61
2021/12/06 14:14:20;;;;;;;;;;;22.70;37.80;;;;;;5093734;28;19916;-61
2021/12/06 14:16:46;;;;;;;;;;;22.70;37.50;;;;;;5099911;28;19918;-62
2021/12/06 14:19:11;;;;;;;;;;;22.70;37.50;;;;;;5092683;28;19911;-61
2021/12/06 14:21:37;;;;;;;;;;;22.70;37.50;;;;;;5103888;28;19916;-61
2021/12/06 14:24:03;;;;;;;;;;;22.70;37.70;;;;;;5102765;28;19979;-61
2021/12/06 14:26:31;;;;;;;;;;;22.70;37.70;;;;;;5105503;28;20006;-62